createdAt,value
2018-06-20T00:00:43.812Z,2.62
2018-06-20T00:03:10.986Z,2.77
2018-06-20T00:05:38.012Z,6.30
2018-06-20T00:08:05.164Z,4.42
2018-06-20T00:10:32.180Z,4.67
2018-06-20T00:12:59.246Z,6.62
2018-06-20T00:15:26.306Z,2.75
2018-06-20T00:17:53.373Z,4.40
2018-06-20T00:20:20.417Z,2.45
2018-06-20T00:22:47.502Z,3.83
2018-06-20T00:25:14.533Z,3.95
2018-06-20T00:27:41.596Z,6.35
2018-06-20T00:30:08.645Z,5.08
2018-06-20T00:32:35.725Z,3.05
2018-06-20T00:35:02.792Z,5.35
2018-06-20T00:37:29.833Z,4.00
2018-06-20T00:39:56.896Z,3.70
2018-06-20T00:42:24.038Z,12.95
2018-06-20T00:44:51.594Z,4.03
2018-06-20T00:47:18.639Z,2.62
2018-06-20T00:49:45.680Z,2.95
2018-06-20T00:52:12.803Z,5.20
2018-06-20T00:54:39.871Z,3.33
2018-06-20T00:57:06.906Z,5.12
2018-06-20T00:59:33.958Z,5.87
2018-06-20T01:02:00.992Z,11.08
2018-06-20T01:04:28.066Z,1.67
2018-06-20T01:06:55.114Z,2.70
2018-06-20T01:09:23.176Z,5.00
2018-06-20T01:11:51.209Z,3.05
2018-06-20T01:14:18.162Z,4.53
2018-06-20T01:16:45.214Z,2.62
2018-06-20T01:19:12.334Z,3.83
2018-06-20T01:21:39.970Z,4.65
2018-06-20T01:24:07.056Z,2.58
2018-06-20T01:26:34.125Z,5.20
2018-06-20T01:29:01.148Z,5.00
2018-06-20T01:31:28.202Z,3.75
2018-06-20T01:33:55.348Z,3.27
2018-06-20T01:36:22.402Z,3.95
2018-06-20T01:38:49.468Z,3.80
2018-06-20T01:41:16.545Z,3.50
2018-06-20T01:43:43.626Z,14.00
2018-06-20T01:46:10.673Z,3.65
2018-06-20T01:48:37.721Z,6.58
2018-06-20T01:51:04.776Z,4.28
2018-06-20T01:53:31.921Z,2.47
2018-06-20T01:55:58.972Z,2.00
2018-06-20T01:58:26.019Z,2.75
2018-06-20T02:00:53.076Z,4.40
2018-06-20T02:03:20.211Z,3.35
2018-06-20T02:05:47.260Z,4.22
2018-06-20T02:08:14.320Z,3.55
2018-06-20T02:10:41.362Z,3.75
2018-06-20T02:13:09.110Z,6.22
2018-06-20T02:15:36.137Z,2.75
2018-06-20T02:18:03.175Z,3.85
2018-06-20T02:20:30.253Z,4.62
2018-06-20T02:22:57.400Z,5.92
2018-06-20T02:25:24.458Z,2.52
2018-06-20T02:27:51.520Z,3.60
2018-06-20T02:30:18.585Z,10.80
2018-06-20T02:32:45.690Z,3.70
2018-06-20T02:35:12.758Z,3.75
2018-06-20T02:37:39.815Z,3.40
2018-06-20T02:40:06.880Z,3.00
2018-06-20T02:42:33.992Z,3.27
2018-06-20T02:45:01.096Z,2.30
2018-06-20T02:47:33.749Z,2.72
2018-06-20T02:50:01.045Z,3.60
2018-06-20T02:52:28.208Z,4.03
2018-06-20T02:54:55.330Z,3.62
2018-06-20T02:57:22.352Z,2.92
2018-06-20T02:59:49.489Z,6.67
2018-06-20T03:02:16.569Z,5.00
2018-06-20T03:04:43.605Z,2.65
2018-06-20T03:07:10.669Z,3.00
2018-06-20T03:09:37.823Z,5.67
2018-06-20T03:12:04.978Z,3.98
2018-06-20T03:14:32.110Z,3.40
2018-06-20T03:16:59.170Z,10.60
2018-06-20T03:19:27.833Z,5.75
2018-06-20T03:21:54.917Z,6.10
2018-06-20T03:24:21.958Z,4.20
2018-06-20T03:26:49.997Z,6.33
2018-06-20T03:29:17.048Z,3.87
2018-06-20T03:31:44.114Z,4.33
2018-06-20T03:34:11.244Z,4.65
2018-06-20T03:36:38.304Z,3.77
2018-06-20T03:39:06.248Z,6.50
2018-06-20T03:41:33.279Z,3.55
2018-06-20T03:44:00.352Z,2.45
2018-06-20T03:46:27.508Z,3.47
2018-06-20T03:48:54.569Z,4.97
2018-06-20T03:51:21.602Z,6.00
2018-06-20T03:53:48.732Z,2.83
2018-06-20T03:56:15.756Z,4.40
2018-06-20T03:58:42.795Z,4.55
2018-06-20T04:01:09.832Z,3.40
2018-06-20T04:03:36.920Z,4.28
2018-06-20T04:06:03.948Z,2.20
2018-06-20T04:08:30.982Z,3.25
2018-06-20T04:10:58.057Z,4.37
2018-06-20T04:13:25.093Z,5.55
2018-06-20T04:15:52.144Z,3.35
2018-06-20T04:18:19.240Z,2.92
2018-06-20T04:20:46.277Z,7.08
2018-06-20T04:23:13.422Z,4.25
2018-06-20T04:25:40.464Z,3.75
2018-06-20T04:28:07.509Z,3.00
2018-06-20T04:30:34.548Z,3.83
2018-06-20T04:33:01.691Z,6.60
2018-06-20T04:35:28.728Z,3.95
2018-06-20T04:37:55.807Z,2.33
2018-06-20T04:40:22.893Z,4.00
2018-06-20T04:42:50.296Z,3.05
2018-06-20T04:47:54.746Z,4.87
2018-06-20T04:50:21.864Z,4.08
2018-06-20T04:52:48.998Z,3.58
2018-06-20T04:55:16.047Z,5.50
2018-06-20T04:57:43.191Z,2.40
2018-06-20T05:00:10.748Z,6.90
2018-06-20T05:02:37.820Z,5.60
2018-06-20T05:05:04.879Z,5.40
2018-06-20T05:07:32.209Z,4.92
2018-06-20T05:09:59.352Z,14.47
2018-06-20T05:12:26.523Z,3.90
2018-06-20T05:14:53.615Z,2.35
2018-06-20T05:17:20.650Z,3.42
2018-06-20T05:19:47.704Z,5.15
2018-06-20T05:22:14.776Z,4.22
2018-06-20T05:24:41.850Z,4.90
2018-06-20T05:27:09.327Z,5.08
2018-06-20T05:29:37.844Z,2.75
2018-06-20T05:32:04.913Z,3.20
2018-06-20T05:34:32.011Z,4.35
2018-06-20T05:36:59.932Z,2.90
2018-06-20T05:39:27.253Z,3.37
2018-06-20T05:41:54.326Z,3.20
2018-06-20T05:44:21.861Z,3.85
2018-06-20T05:46:48.909Z,4.37
2018-06-20T05:49:15.977Z,3.60
2018-06-20T05:51:43.013Z,3.55
2018-06-20T05:54:10.084Z,2.22
2018-06-20T05:56:37.123Z,2.75
2018-06-20T05:59:04.226Z,2.17
2018-06-20T06:01:31.328Z,2.60
2018-06-20T06:03:58.476Z,7.20
2018-06-20T06:06:25.547Z,4.22
2018-06-20T06:08:52.576Z,2.17
2018-06-20T06:11:19.650Z,2.12
2018-06-20T06:13:46.747Z,8.53
2018-06-20T06:16:13.796Z,5.05
2018-06-20T06:18:40.895Z,6.17
2018-06-20T06:21:08.802Z,5.85
2018-06-20T06:23:35.844Z,5.33
2018-06-20T06:26:02.909Z,5.15
2018-06-20T06:28:30.051Z,3.20
2018-06-20T06:30:57.285Z,8.83
2018-06-20T06:33:24.399Z,8.85
2018-06-20T06:35:51.444Z,4.25
2018-06-20T06:38:18.495Z,4.97
2018-06-20T06:40:46.740Z,2.52
2018-06-20T06:43:13.872Z,6.80
2018-06-20T06:45:43.375Z,7.50
2018-06-20T06:48:13.958Z,3.45
2018-06-20T06:50:48.460Z,4.75
2018-06-20T06:53:17.227Z,8.18
2018-06-20T06:55:44.288Z,4.25
2018-06-20T06:58:11.340Z,4.70
2018-06-20T07:00:39.023Z,6.67
2018-06-20T07:03:06.104Z,6.15
2018-06-20T07:05:33.153Z,6.47
2018-06-20T07:08:00.204Z,7.45
2018-06-20T07:10:27.259Z,4.80
2018-06-20T07:12:54.381Z,5.78
2018-06-20T07:15:21.456Z,3.17
2018-06-20T07:17:48.598Z,4.97
2018-06-20T07:20:16.240Z,3.70
2018-06-20T07:22:43.334Z,2.40
2018-06-20T07:25:11.061Z,4.75
2018-06-20T07:27:39.269Z,11.05
2018-06-20T07:30:06.549Z,3.95
2018-06-20T07:32:34.324Z,6.80
2018-06-20T07:35:02.691Z,4.53
2018-06-20T07:37:29.777Z,4.67
2018-06-20T07:39:58.451Z,6.62
2018-06-20T07:42:26.962Z,4.17
2018-06-20T07:44:54.004Z,2.80
2018-06-20T07:47:21.043Z,6.70
2018-06-20T07:49:48.159Z,4.95
2018-06-20T07:52:15.223Z,4.62
2018-06-20T07:54:43.054Z,7.67
2018-06-20T07:57:10.102Z,8.93
2018-06-20T07:59:42.841Z,6.85
2018-06-20T08:02:21.174Z,8.80
2018-06-20T08:04:53.716Z,7.08
2018-06-20T08:07:26.271Z,4.22
2018-06-20T08:09:58.741Z,5.03
2018-06-20T08:12:31.591Z,6.00
2018-06-20T08:15:04.134Z,3.85
2018-06-20T08:17:36.645Z,6.55
2018-06-20T08:20:08.036Z,4.47
2018-06-20T08:22:35.203Z,7.83
2018-06-20T08:25:19.627Z,4.65
2018-06-20T08:27:51.978Z,4.95
2018-06-20T08:30:19.032Z,5.12
2018-06-20T08:32:46.075Z,5.62
2018-06-20T08:35:13.121Z,9.93
2018-06-20T08:37:41.118Z,3.80
2018-06-20T08:40:08.154Z,7.75
2018-06-20T08:42:35.302Z,5.92
2018-06-20T08:45:02.387Z,7.53
2018-06-20T08:47:29.452Z,5.75
2018-06-20T08:49:56.528Z,4.65
2018-06-20T08:52:24.079Z,4.40
2018-06-20T08:54:52.046Z,7.50
2018-06-20T08:57:19.130Z,6.47
2018-06-20T08:59:46.439Z,3.65
2018-06-20T09:02:16.969Z,5.47
2018-06-20T09:04:49.692Z,7.78
2018-06-20T09:07:22.264Z,8.45
2018-06-20T09:09:54.814Z,16.70
2018-06-20T09:12:27.433Z,6.72
2018-06-20T09:14:59.798Z,8.10
2018-06-20T09:17:32.427Z,10.05
2018-06-20T09:20:00.397Z,14.00
2018-06-20T09:22:27.454Z,12.25
2018-06-20T09:24:54.496Z,9.65
2018-06-20T09:27:21.559Z,10.48
2018-06-20T09:29:48.618Z,11.10
2018-06-20T09:32:15.834Z,13.18
2018-06-20T09:34:43.247Z,11.12
2018-06-20T09:37:10.316Z,9.15
2018-06-20T09:39:38.284Z,14.28
2018-06-20T09:42:05.371Z,10.53
2018-06-20T09:44:32.431Z,18.65
2018-06-20T09:46:59.648Z,9.68
2018-06-20T09:49:26.673Z,11.95
2018-06-20T09:51:53.745Z,13.68
2018-06-20T09:54:21.432Z,10.10
2018-06-20T09:56:48.452Z,6.90
2018-06-20T09:59:21.013Z,15.60
2018-06-20T10:01:53.560Z,23.42
2018-06-20T10:04:26.331Z,18.77
2018-06-20T10:06:58.934Z,19.00
2018-06-20T10:09:31.673Z,15.05
2018-06-20T10:12:04.244Z,10.23
2018-06-20T10:14:31.311Z,17.12
2018-06-20T10:16:58.356Z,43.15
2018-06-20T10:19:25.850Z,33.58
2018-06-20T10:21:52.905Z,26.57
2018-06-20T10:24:19.948Z,33.10
2018-06-20T10:26:47.028Z,18.25
2018-06-20T10:29:14.098Z,26.42
2018-06-20T10:31:41.519Z,29.10
2018-06-20T10:34:08.705Z,21.75
2018-06-20T10:36:35.697Z,15.68
2018-06-20T10:39:02.841Z,18.92
2018-06-20T10:41:35.547Z,15.10
2018-06-20T10:44:07.023Z,16.02
2018-06-20T10:46:39.610Z,14.35
2018-06-20T10:49:06.686Z,15.32
2018-06-20T10:51:33.744Z,19.65
2018-06-20T10:54:02.436Z,15.35
2018-06-20T10:56:34.991Z,18.35
2018-06-20T11:00:07.984Z,19.48
2018-06-20T11:02:40.527Z,16.70
2018-06-20T11:05:13.153Z,13.20
2018-06-20T11:07:46.541Z,11.33
2018-06-20T11:10:19.746Z,15.38
2018-06-20T11:12:54.353Z,14.38
2018-06-20T11:15:21.794Z,11.00
2018-06-20T11:17:48.798Z,10.63
2018-06-20T11:20:17.223Z,11.45
2018-06-20T11:22:44.256Z,8.08
2018-06-20T11:25:11.299Z,15.88
2018-06-20T11:27:38.690Z,13.22
2018-06-20T11:30:05.755Z,8.83
2018-06-20T11:32:32.936Z,8.78
2018-06-20T11:35:01.595Z,8.40
2018-06-20T11:37:28.769Z,10.30
2018-06-20T11:39:55.812Z,6.62
2018-06-20T11:42:22.981Z,9.00
2018-06-20T11:44:52.969Z,11.35
2018-06-20T11:47:30.154Z,7.55
2018-06-20T11:49:59.486Z,10.13
2018-06-20T11:52:34.645Z,9.65
2018-06-20T11:55:07.854Z,7.25
2018-06-20T11:57:34.925Z,8.63
2018-06-20T12:00:07.491Z,10.98
2018-06-20T12:02:40.143Z,11.15
2018-06-20T12:05:12.864Z,10.55
2018-06-20T12:07:46.159Z,9.03
2018-06-20T12:10:18.735Z,13.45
2018-06-20T12:12:51.367Z,7.55
2018-06-20T12:15:23.841Z,5.70
2018-06-20T12:17:56.397Z,7.53
2018-06-20T12:20:29.038Z,12.37
2018-06-20T12:23:01.612Z,8.23
2018-06-20T12:25:34.176Z,18.05
2018-06-20T12:28:06.830Z,8.03
2018-06-20T12:30:39.384Z,9.98
2018-06-20T12:33:12.059Z,7.42
2018-06-20T12:35:44.622Z,6.37
2018-06-20T12:38:17.316Z,9.15
2018-06-20T12:40:49.890Z,5.45
2018-06-20T12:43:22.561Z,9.90
2018-06-20T12:45:53.990Z,8.25
2018-06-20T12:48:21.091Z,9.35
2018-06-20T12:50:48.161Z,19.37
2018-06-20T12:53:15.287Z,8.35
2018-06-20T12:55:42.332Z,7.85
2018-06-20T12:58:09.464Z,14.33
2018-06-20T13:00:36.519Z,11.25
2018-06-20T13:03:03.652Z,15.05
2018-06-20T13:05:30.700Z,13.43
2018-06-20T13:07:57.766Z,14.03
2018-06-20T13:10:24.842Z,13.08
2018-06-20T13:12:51.999Z,11.48
2018-06-20T13:15:19.151Z,11.57
2018-06-20T13:17:46.240Z,16.35
2018-06-20T13:20:13.418Z,14.45
2018-06-20T13:22:40.520Z,15.38
2018-06-20T13:25:07.607Z,13.18
2018-06-20T13:27:40.089Z,13.45
2018-06-20T13:30:11.308Z,17.52
2018-06-20T13:32:43.893Z,11.05
2018-06-20T13:35:16.434Z,11.50
2018-06-20T13:37:49.545Z,10.13
2018-06-20T13:40:22.228Z,13.65
2018-06-20T13:42:54.856Z,6.97
2018-06-20T13:45:27.579Z,10.20
2018-06-20T13:48:00.257Z,10.28
2018-06-20T13:50:30.420Z,15.03
2018-06-20T13:52:57.667Z,13.55
2018-06-20T13:55:24.756Z,16.75
2018-06-20T13:57:51.807Z,13.78
2018-06-20T14:00:18.955Z,13.85
2018-06-20T14:02:46.176Z,13.93
2018-06-20T14:05:13.217Z,12.68
2018-06-20T14:07:40.726Z,10.53
2018-06-20T14:10:07.785Z,11.08
2018-06-20T14:12:34.919Z,12.78
2018-06-20T14:15:02.042Z,14.87
2018-06-20T14:17:29.443Z,10.45
2018-06-20T14:20:01.998Z,17.57
2018-06-20T14:22:29.121Z,15.18
2018-06-20T14:24:56.216Z,15.40
2018-06-20T14:27:23.274Z,13.45
2018-06-20T14:29:50.378Z,27.05
2018-06-20T14:32:23.034Z,15.30
2018-06-20T14:34:55.640Z,13.68
2018-06-20T14:37:28.226Z,11.85
2018-06-20T14:40:00.769Z,9.88
2018-06-20T14:42:33.247Z,17.62
2018-06-20T14:45:05.764Z,14.00
2018-06-20T14:47:32.818Z,13.72
2018-06-20T14:49:59.878Z,12.75
2018-06-20T14:52:27.067Z,13.38
2018-06-20T14:54:54.123Z,15.65
2018-06-20T14:57:21.188Z,11.97
2018-06-20T14:59:48.266Z,13.72
2018-06-20T15:02:15.439Z,14.50
2018-06-20T15:04:42.526Z,12.25
2018-06-20T15:07:09.991Z,13.32
2018-06-20T15:09:37.054Z,12.15
2018-06-20T15:12:04.173Z,8.25
2018-06-20T15:14:31.302Z,22.55
2018-06-20T15:17:03.864Z,12.10
2018-06-20T15:19:31.223Z,11.97
2018-06-20T15:21:58.387Z,10.93
2018-06-20T15:24:25.531Z,12.53
2018-06-20T15:26:58.136Z,11.30
2018-06-20T15:29:30.682Z,16.30
2018-06-20T15:33:03.954Z,11.20
2018-06-20T15:35:36.537Z,12.63
2018-06-20T15:38:09.128Z,14.15
2018-06-20T15:40:36.201Z,10.63
2018-06-20T15:43:03.359Z,12.78
2018-06-20T15:45:30.444Z,12.05
2018-06-20T15:47:57.470Z,13.43
2018-06-20T15:50:24.544Z,10.98
2018-06-20T15:52:51.616Z,16.93
2018-06-20T15:55:18.655Z,8.23
2018-06-20T15:57:45.791Z,7.30
2018-06-20T16:00:12.902Z,10.05
2018-06-20T16:02:40.171Z,8.50
2018-06-20T16:05:07.227Z,8.35
2018-06-20T16:07:34.314Z,10.72
2018-06-20T16:10:01.745Z,8.98
2018-06-20T16:12:28.878Z,11.38
2018-06-20T16:14:56.886Z,15.60
2018-06-20T16:17:23.926Z,7.47
2018-06-20T16:19:56.552Z,9.05
2018-06-20T16:22:29.340Z,11.75
2018-06-20T16:25:02.040Z,8.55
2018-06-20T16:27:34.586Z,8.63
2018-06-20T16:30:07.848Z,21.30
2018-06-20T16:32:34.954Z,8.65
2018-06-20T16:35:02.556Z,8.48
2018-06-20T16:37:30.563Z,8.30
2018-06-20T16:39:57.577Z,9.50
2018-06-20T16:42:24.718Z,8.15
2018-06-20T16:44:52.348Z,5.45
2018-06-20T16:47:19.836Z,7.97
2018-06-20T16:49:46.922Z,9.23
2018-06-20T16:52:13.991Z,8.98
2018-06-20T16:54:41.043Z,7.53
2018-06-20T16:57:08.471Z,8.65
2018-06-20T16:59:35.540Z,6.00
2018-06-20T17:02:08.112Z,7.62
2018-06-20T17:04:35.152Z,6.45
2018-06-20T17:07:02.207Z,9.70
2018-06-20T17:09:29.254Z,5.45
2018-06-20T17:12:02.025Z,6.17
2018-06-20T17:14:34.767Z,4.20
2018-06-20T17:17:07.250Z,8.08
2018-06-20T17:20:37.420Z,6.45
2018-06-20T17:23:10.244Z,9.98
2018-06-20T17:25:37.865Z,12.03
2018-06-20T17:28:05.261Z,5.00
2018-06-20T17:30:32.352Z,7.90
2018-06-20T17:32:59.540Z,5.62
2018-06-20T17:35:26.592Z,7.10
2018-06-20T17:37:54.453Z,8.23
2018-06-20T17:40:22.822Z,4.75
2018-06-20T17:42:50.877Z,11.65
2018-06-20T17:45:18.156Z,3.42
2018-06-20T17:47:45.387Z,5.33
2018-06-20T17:50:12.543Z,4.90
2018-06-20T17:52:40.223Z,6.87
2018-06-20T17:55:07.568Z,7.58
2018-06-20T17:57:34.670Z,7.28
2018-06-20T18:00:01.919Z,10.38
2018-06-20T18:02:29.377Z,8.85
2018-06-20T18:05:02.143Z,5.10
2018-06-20T18:07:34.649Z,3.85
2018-06-20T18:10:07.405Z,12.15
2018-06-20T18:12:40.191Z,5.00
2018-06-20T18:15:13.027Z,3.75
2018-06-20T18:17:40.534Z,10.60
2018-06-20T18:20:07.796Z,4.25
2018-06-20T18:22:34.930Z,4.65
2018-06-20T18:25:02.085Z,5.95
2018-06-20T18:27:29.193Z,3.92
2018-06-20T18:29:56.482Z,4.50
2018-06-20T18:32:23.752Z,6.50
2018-06-20T18:34:50.876Z,3.22
2018-06-20T18:37:18.641Z,5.47
2018-06-20T18:39:51.401Z,2.80
2018-06-20T18:42:18.467Z,5.75
2018-06-20T18:44:45.534Z,4.67
2018-06-20T18:48:15.716Z,3.55
2018-06-20T18:50:43.071Z,9.38
2018-06-20T18:53:10.167Z,4.92
2018-06-20T18:55:37.743Z,5.10
2018-06-20T18:58:10.401Z,3.65
2018-06-20T19:00:42.940Z,5.80
2018-06-20T19:03:15.618Z,4.72
2018-06-20T19:05:48.637Z,24.95
2018-06-20T19:08:21.110Z,2.98
2018-06-20T19:10:48.170Z,5.90
2018-06-20T19:13:15.319Z,2.87
2018-06-20T19:15:42.356Z,5.08
2018-06-20T19:18:09.476Z,5.72
2018-06-20T19:20:36.547Z,4.40
2018-06-20T19:23:03.683Z,7.37
2018-06-20T19:25:30.826Z,5.83
2018-06-20T19:27:57.906Z,3.58
2018-06-20T19:30:25.003Z,4.90
2018-06-20T19:32:52.052Z,2.55
2018-06-20T19:35:19.091Z,4.80
2018-06-20T19:37:46.171Z,3.58
2018-06-20T19:40:13.309Z,2.50
2018-06-20T19:42:40.435Z,3.10
2018-06-20T19:45:07.557Z,3.62
2018-06-20T19:47:34.527Z,3.95
2018-06-20T19:50:01.599Z,3.15
2018-06-20T19:52:28.747Z,5.87
2018-06-20T19:54:55.792Z,2.80
2018-06-20T19:57:22.932Z,4.35
2018-06-20T19:59:49.972Z,3.52
2018-06-20T20:02:17.112Z,5.90
2018-06-20T20:04:44.258Z,8.55
2018-06-20T20:07:11.326Z,6.15
2018-06-20T20:09:38.491Z,2.12
2018-06-20T20:12:06.198Z,7.10
2018-06-20T20:14:33.267Z,7.17
2018-06-20T20:17:01.539Z,7.92
2018-06-20T20:19:29.745Z,3.55
2018-06-20T20:21:56.844Z,4.10
2018-06-20T20:24:23.971Z,3.42
2018-06-20T20:26:51.085Z,3.92
2018-06-20T20:29:18.435Z,3.08
2018-06-20T20:31:45.480Z,5.37
2018-06-20T20:34:12.723Z,3.25
2018-06-20T20:36:40.283Z,7.78
2018-06-20T20:39:07.452Z,2.87
2018-06-20T20:41:35.508Z,2.20
2018-06-20T20:44:02.632Z,5.30
2018-06-20T20:46:29.677Z,8.53
2018-06-20T20:48:56.740Z,4.25
2018-06-20T20:51:23.796Z,7.90
2018-06-20T20:53:50.910Z,2.60
2018-06-20T20:56:17.954Z,4.78
2018-06-20T20:58:45.060Z,2.08
2018-06-20T21:01:12.565Z,8.45
2018-06-20T21:03:39.608Z,5.12
2018-06-20T21:06:07.172Z,2.83
2018-06-20T21:08:34.224Z,3.35
2018-06-20T21:11:01.274Z,3.50
2018-06-20T21:13:29.461Z,6.37
2018-06-20T21:15:57.382Z,2.10
2018-06-20T21:18:24.440Z,3.90
2018-06-20T21:20:51.476Z,2.45
2018-06-20T21:23:18.553Z,3.20
2018-06-20T21:25:45.707Z,4.00
2018-06-20T21:28:12.744Z,6.33
2018-06-20T21:30:39.810Z,4.33
2018-06-20T21:33:06.912Z,3.08
2018-06-20T21:35:33.964Z,3.77
2018-06-20T21:38:02.763Z,2.08
2018-06-20T21:40:29.806Z,5.28
2018-06-20T21:42:56.980Z,2.25
2018-06-20T21:45:24.019Z,3.10
2018-06-20T21:47:51.076Z,3.70
2018-06-20T21:50:18.113Z,3.50
2018-06-20T21:52:45.224Z,10.32
2018-06-20T21:55:12.278Z,3.27
2018-06-20T21:57:39.326Z,4.17
2018-06-20T22:00:08.667Z,4.72
2018-06-20T22:02:35.772Z,2.30
2018-06-20T22:05:02.881Z,2.55
2018-06-20T22:07:30.445Z,10.72
2018-06-20T22:09:58.031Z,4.67
2018-06-20T22:12:25.100Z,2.10
2018-06-20T22:14:52.547Z,2.00
2018-06-20T22:17:19.571Z,2.60
2018-06-20T22:19:46.628Z,4.15
2018-06-20T22:22:13.693Z,3.50
2018-06-20T22:24:40.736Z,3.72
2018-06-20T22:27:07.890Z,7.12
2018-06-20T22:29:34.945Z,3.30
2018-06-20T22:32:02.005Z,4.85
2018-06-20T22:34:29.062Z,5.92
2018-06-20T22:36:56.244Z,2.35
2018-06-20T22:39:23.353Z,2.90
2018-06-20T22:41:50.464Z,2.98
2018-06-20T22:44:17.591Z,4.60
2018-06-20T22:46:44.682Z,3.42
2018-06-20T22:49:11.774Z,4.50
2018-06-20T22:51:39.228Z,2.35
2018-06-20T22:54:06.392Z,4.67
2018-06-20T22:56:33.509Z,3.52
2018-06-20T22:59:00.610Z,2.20
2018-06-20T23:01:27.828Z,3.75
2018-06-20T23:03:55.396Z,3.95
2018-06-20T23:06:22.773Z,2.87
2018-06-20T23:08:49.951Z,2.17
2018-06-20T23:11:17.136Z,2.50
2018-06-20T23:13:44.264Z,2.50
2018-06-20T23:16:11.437Z,4.37
2018-06-20T23:18:39.208Z,2.85
2018-06-20T23:21:06.329Z,2.33
2018-06-20T23:23:33.478Z,6.90
2018-06-20T23:26:00.607Z,5.78
2018-06-20T23:28:27.744Z,2.33
2018-06-20T23:30:55.818Z,1.92
2018-06-20T23:33:22.986Z,4.00
2018-06-20T23:35:50.138Z,1.82
2018-06-20T23:38:17.535Z,8.90
2018-06-20T23:40:44.640Z,2.72
2018-06-20T23:43:11.816Z,3.98
2018-06-20T23:45:39.248Z,2.37
2018-06-20T23:48:06.346Z,2.95
2018-06-20T23:50:33.456Z,2.37
2018-06-20T23:53:00.590Z,4.25
2018-06-20T23:55:27.704Z,2.58
2018-06-20T23:57:54.798Z,6.50
